sensor_id;sensor_type;location;lat;lon;timestamp;pressure;altitude;pressure_sealevel;temperature;humidity
62617;BME280;62539;51.190;6.808;2022-08-19T00:01:30;101018.88;;;25.44;53.68
62617;BME280;62539;51.190;6.808;2022-08-19T00:04:02;101026.75;;;25.45;53.68
62617;BME280;62539;51.190;6.808;2022-08-19T00:06:30;101022.34;;;25.44;54.02
62617;BME280;62539;51.190;6.808;2022-08-19T00:08:57;101024.25;;;25.42;53.83
62617;BME280;62539;51.190;6.808;2022-08-19T00:11:23;101019.88;;;25.41;53.85
62617;BME280;62539;51.190;6.808;2022-08-19T00:13:50;101021.88;;;25.37;53.93
62617;BME280;62539;51.190;6.808;2022-08-19T00:16:19;101025.38;;;25.38;53.94
62617;BME280;62539;51.190;6.808;2022-08-19T00:18:45;101025.56;;;25.35;54.12
62617;BME280;62539;51.190;6.808;2022-08-19T00:21:12;101024.72;;;25.34;53.92
62617;BME280;62539;51.190;6.808;2022-08-19T00:23:38;101025.56;;;25.35;54.03
62617;BME280;62539;51.190;6.808;2022-08-19T00:26:04;101020.44;;;25.32;53.83
62617;BME280;62539;51.190;6.808;2022-08-19T00:28:31;101016.00;;;25.32;53.99
62617;BME280;62539;51.190;6.808;2022-08-19T00:30:58;101017.72;;;25.33;53.85
62617;BME280;62539;51.190;6.808;2022-08-19T00:33:25;101016.00;;;25.32;53.72
62617;BME280;62539;51.190;6.808;2022-08-19T00:35:50;101017.91;;;25.30;54.08
62617;BME280;62539;51.190;6.808;2022-08-19T00:38:16;101011.72;;;25.30;53.82
62617;BME280;62539;51.190;6.808;2022-08-19T00:40:43;101020.53;;;25.30;53.93
62617;BME280;62539;51.190;6.808;2022-08-19T00:43:12;101017.19;;;25.27;53.99
62617;BME280;62539;51.190;6.808;2022-08-19T00:45:39;101020.81;;;25.25;53.75
62617;BME280;62539;51.190;6.808;2022-08-19T00:48:09;101013.97;;;25.21;54.23
62617;BME280;62539;51.190;6.808;2022-08-19T00:50:35;101014.84;;;25.22;53.74
62617;BME280;62539;51.190;6.808;2022-08-19T00:53:02;101013.13;;;25.21;54.10
62617;BME280;62539;51.190;6.808;2022-08-19T00:55:30;101005.25;;;25.19;54.24
62617;BME280;62539;51.190;6.808;2022-08-19T00:58:02;101003.53;;;25.18;54.15
62617;BME280;62539;51.190;6.808;2022-08-19T01:00:40;100993.97;;;25.16;54.14
62617;BME280;62539;51.190;6.808;2022-08-19T01:03:07;101002.88;;;25.15;54.01
62617;BME280;62539;51.190;6.808;2022-08-19T01:05:36;101009.03;;;25.15;53.76
62617;BME280;62539;51.190;6.808;2022-08-19T01:08:05;101014.50;;;25.12;54.12
62617;BME280;62539;51.190;6.808;2022-08-19T01:10:39;101009.19;;;25.12;53.83
62617;BME280;62539;51.190;6.808;2022-08-19T01:13:10;101007.50;;;25.11;54.28
62617;BME280;62539;51.190;6.808;2022-08-19T01:15:45;101011.09;;;25.10;53.88
62617;BME280;62539;51.190;6.808;2022-08-19T01:18:17;101009.38;;;25.09;54.35
62617;BME280;62539;51.190;6.808;2022-08-19T01:20:44;101008.53;;;25.08;54.29
62617;BME280;62539;51.190;6.808;2022-08-19T01:23:11;101011.28;;;25.07;54.13
62617;BME280;62539;51.190;6.808;2022-08-19T01:25:50;101016.75;;;25.04;54.14
62617;BME280;62539;51.190;6.808;2022-08-19T01:28:18;101003.50;;;25.04;54.29
62617;BME280;62539;51.190;6.808;2022-08-19T01:30:46;100999.13;;;25.03;54.11
62617;BME280;62539;51.190;6.808;2022-08-19T01:33:12;101007.19;;;25.01;54.13
62617;BME280;62539;51.190;6.808;2022-08-19T01:35:40;101001.00;;;25.01;53.92
62617;BME280;62539;51.190;6.808;2022-08-19T01:38:08;101004.59;;;25.00;54.32
62617;BME280;62539;51.190;6.808;2022-08-19T01:40:43;100998.53;;;24.98;54.29
62617;BME280;62539;51.190;6.808;2022-08-19T01:43:09;100998.53;;;24.98;54.34
62617;BME280;62539;51.190;6.808;2022-08-19T01:45:35;100999.47;;;24.97;54.26
62617;BME280;62539;51.190;6.808;2022-08-19T01:48:01;101002.91;;;24.99;54.17
62617;BME280;62539;51.190;6.808;2022-08-19T01:50:29;101008.38;;;24.95;54.31
62617;BME280;62539;51.190;6.808;2022-08-19T01:52:56;101013.69;;;24.95;54.17
62617;BME280;62539;51.190;6.808;2022-08-19T01:55:21;101004.03;;;24.94;54.01
62617;BME280;62539;51.190;6.808;2022-08-19T01:57:52;100995.13;;;24.95;54.06
62617;BME280;62539;51.190;6.808;2022-08-19T02:00:24;100989.91;;;24.94;53.98
62617;BME280;62539;51.190;6.808;2022-08-19T02:02:52;100990.09;;;24.91;54.32
62617;BME280;62539;51.190;6.808;2022-08-19T02:05:18;100984.78;;;24.91;54.12
62617;BME280;62539;51.190;6.808;2022-08-19T02:07:46;100993.00;;;24.86;54.37
62617;BME280;62539;51.190;6.808;2022-08-19T02:10:17;100981.56;;;24.86;54.12
62617;BME280;62539;51.190;6.808;2022-08-19T02:12:46;100989.50;;;24.86;54.14
62617;BME280;62539;51.190;6.808;2022-08-19T02:15:12;100993.94;;;24.85;54.22
62617;BME280;62539;51.190;6.808;2022-08-19T02:17:38;100989.59;;;24.84;54.61
62617;BME280;62539;51.190;6.808;2022-08-19T02:20:05;100996.78;;;24.82;54.26
62617;BME280;62539;51.190;6.808;2022-08-19T02:22:32;100993.19;;;24.83;54.58
62617;BME280;62539;51.190;6.808;2022-08-19T02:24:57;100998.47;;;24.83;54.26
62617;BME280;62539;51.190;6.808;2022-08-19T02:27:23;100996.00;;;24.80;54.31
62617;BME280;62539;51.190;6.808;2022-08-19T02:29:49;101007.38;;;24.82;54.26
62617;BME280;62539;51.190;6.808;2022-08-19T02:32:16;100996.94;;;24.79;54.50
62617;BME280;62539;51.190;6.808;2022-08-19T02:34:43;101003.19;;;24.78;54.26
62617;BME280;62539;51.190;6.808;2022-08-19T02:37:09;100997.13;;;24.76;54.71
62617;BME280;62539;51.190;6.808;2022-08-19T02:39:54;100996.38;;;24.74;54.30
62617;BME280;62539;51.190;6.808;2022-08-19T02:42:19;101007.91;;;24.73;54.66
62617;BME280;62539;51.190;6.808;2022-08-19T02:44:45;101013.22;;;24.73;54.92
62617;BME280;62539;51.190;6.808;2022-08-19T02:47:10;101012.28;;;24.74;54.62
62617;BME280;62539;51.190;6.808;2022-08-19T02:49:36;101018.53;;;24.73;54.85
62617;BME280;62539;51.190;6.808;2022-08-19T02:52:02;101016.78;;;24.72;54.86
62617;BME280;62539;51.190;6.808;2022-08-19T02:54:28;101014.25;;;24.70;54.94
62617;BME280;62539;51.190;6.808;2022-08-19T02:56:53;101022.25;;;24.69;54.89
62617;BME280;62539;51.190;6.808;2022-08-19T02:59:19;101023.97;;;24.70;54.83
62617;BME280;62539;51.190;6.808;2022-08-19T03:01:46;101025.84;;;24.67;54.73
62617;BME280;62539;51.190;6.808;2022-08-19T03:04:15;101022.25;;;24.69;55.05
62617;BME280;62539;51.190;6.808;2022-08-19T03:06:43;101024.06;;;24.68;54.71
62617;BME280;62539;51.190;6.808;2022-08-19T03:09:12;101022.44;;;24.65;55.07
62617;BME280;62539;51.190;6.808;2022-08-19T03:11:38;101023.38;;;24.64;55.13
62617;BME280;62539;51.190;6.808;2022-08-19T03:14:04;101020.72;;;24.64;54.63
62617;BME280;62539;51.190;6.808;2022-08-19T03:16:41;101020.72;;;24.64;54.57
62617;BME280;62539;51.190;6.808;2022-08-19T03:19:12;101018.41;;;24.58;54.86
62617;BME280;62539;51.190;6.808;2022-08-19T03:21:38;101008.59;;;24.60;55.10
62617;BME280;62539;51.190;6.808;2022-08-19T03:24:08;101015.59;;;24.61;55.04
62617;BME280;62539;51.190;6.808;2022-08-19T03:26:38;101006.88;;;24.59;54.89
62617;BME280;62539;51.190;6.808;2022-08-19T03:29:09;101007.75;;;24.60;54.98
62617;BME280;62539;51.190;6.808;2022-08-19T03:31:37;101014.06;;;24.57;54.91
62617;BME280;62539;51.190;6.808;2022-08-19T03:34:04;101019.38;;;24.57;54.88
62617;BME280;62539;51.190;6.808;2022-08-19T03:36:29;101022.97;;;24.56;54.88
62617;BME280;62539;51.190;6.808;2022-08-19T03:38:57;101021.25;;;24.55;55.12
62617;BME280;62539;51.190;6.808;2022-08-19T03:41:31;101022.03;;;24.57;55.28
62617;BME280;62539;51.190;6.808;2022-08-19T03:44:02;101022.03;;;24.57;55.31
62617;BME280;62539;51.190;6.808;2022-08-19T03:46:30;101015.00;;;24.56;55.45
62617;BME280;62539;51.190;6.808;2022-08-19T03:49:00;101022.13;;;24.56;55.20
62617;BME280;62539;51.190;6.808;2022-08-19T03:51:32;101025.72;;;24.55;55.26
62617;BME280;62539;51.190;6.808;2022-08-19T03:54:07;101035.28;;;24.57;55.43
62617;BME280;62539;51.190;6.808;2022-08-19T03:56:36;101038.88;;;24.56;55.46
62617;BME280;62539;51.190;6.808;2022-08-19T03:59:03;101032.72;;;24.56;55.32
62617;BME280;62539;51.190;6.808;2022-08-19T04:01:30;101032.63;;;24.57;55.25
62617;BME280;62539;51.190;6.808;2022-08-19T04:03:56;101030.16;;;24.54;55.62
62617;BME280;62539;51.190;6.808;2022-08-19T04:06:26;101027.50;;;24.54;55.50
62617;BME280;62539;51.190;6.808;2022-08-19T04:08:56;101032.03;;;24.52;55.56
62617;BME280;62539;51.190;6.808;2022-08-19T04:11:25;101036.38;;;24.53;55.59
62617;BME280;62539;51.190;6.808;2022-08-19T04:13:53;101033.13;;;24.48;55.84
62617;BME280;62539;51.190;6.808;2022-08-19T04:16:22;101041.97;;;24.48;55.83
62617;BME280;62539;51.190;6.808;2022-08-19T04:18:50;101030.41;;;24.49;55.65
62617;BME280;62539;51.190;6.808;2022-08-19T04:21:22;101030.31;;;24.51;55.57
62617;BME280;62539;51.190;6.808;2022-08-19T04:23:50;101030.31;;;24.51;55.82
62617;BME280;62539;51.190;6.808;2022-08-19T04:26:20;101038.44;;;24.48;55.85
62617;BME280;62539;51.190;6.808;2022-08-19T04:28:50;101036.72;;;24.47;55.66
62617;BME280;62539;51.190;6.808;2022-08-19T04:31:24;101034.25;;;24.44;56.19
62617;BME280;62539;51.190;6.808;2022-08-19T04:33:56;101041.38;;;24.43;56.25
62617;BME280;62539;51.190;6.808;2022-08-19T04:36:28;101037.84;;;24.43;55.82
62617;BME280;62539;51.190;6.808;2022-08-19T04:38:58;101037.94;;;24.41;56.22
62617;BME280;62539;51.190;6.808;2022-08-19T04:41:26;101033.03;;;24.33;56.61
62617;BME280;62539;51.190;6.808;2022-08-19T04:44:11;101037.66;;;24.46;56.06
62617;BME280;62539;51.190;6.808;2022-08-19T04:46:38;101043.56;;;24.51;55.86
62617;BME280;62539;51.190;6.808;2022-08-19T04:49:05;101048.72;;;24.54;55.62
62617;BME280;62539;51.190;6.808;2022-08-19T04:51:33;101049.31;;;24.59;55.57
62617;BME280;62539;51.190;6.808;2022-08-19T04:54:00;101051.03;;;24.60;55.18
62617;BME280;62539;51.190;6.808;2022-08-19T04:56:28;101054.44;;;24.62;55.28
62617;BME280;62539;51.190;6.808;2022-08-19T04:58:55;101059.69;;;24.64;55.32
62617;BME280;62539;51.190;6.808;2022-08-19T05:01:24;101070.19;;;24.65;54.85
62617;BME280;62539;51.190;6.808;2022-08-19T05:03:53;101070.97;;;24.67;54.94
62617;BME280;62539;51.190;6.808;2022-08-19T05:06:22;101070.13;;;24.67;55.20
62617;BME280;62539;51.190;6.808;2022-08-19T05:08:49;101072.00;;;24.65;55.28
62617;BME280;62539;51.190;6.808;2022-08-19T05:11:27;101078.91;;;24.67;55.61
62617;BME280;62539;51.190;6.808;2022-08-19T05:13:54;101086.09;;;24.65;55.72
62617;BME280;62539;51.190;6.808;2022-08-19T05:16:21;101088.75;;;24.65;55.74
62617;BME280;62539;51.190;6.808;2022-08-19T05:18:48;101095.78;;;24.66;55.70
62617;BME280;62539;51.190;6.808;2022-08-19T05:21:33;101086.38;;;24.61;55.67
62617;BME280;62539;51.190;6.808;2022-08-19T05:24:20;101092.97;;;24.54;56.11
62617;BME280;62539;51.190;6.808;2022-08-19T05:26:49;101092.19;;;24.51;55.93
62617;BME280;62539;51.190;6.808;2022-08-19T05:29:18;101097.66;;;24.48;56.12
62617;BME280;62539;51.190;6.808;2022-08-19T05:31:47;101094.31;;;24.45;56.13
62617;BME280;62539;51.190;6.808;2022-08-19T05:34:18;101101.59;;;24.41;56.60
62617;BME280;62539;51.190;6.808;2022-08-19T05:36:47;101109.00;;;24.34;56.93
62617;BME280;62539;51.190;6.808;2022-08-19T05:39:20;101105.41;;;24.35;57.00
62617;BME280;62539;51.190;6.808;2022-08-19T05:41:48;101104.72;;;24.32;57.09
62617;BME280;62539;51.190;6.808;2022-08-19T05:44:18;101105.50;;;24.34;56.61
62617;BME280;62539;51.190;6.808;2022-08-19T05:46:45;101110.88;;;24.32;56.79
62617;BME280;62539;51.190;6.808;2022-08-19T05:49:13;101118.16;;;24.45;57.16
62617;BME280;62539;51.190;6.808;2022-08-19T05:51:40;101111.16;;;24.44;57.29
62617;BME280;62539;51.190;6.808;2022-08-19T05:54:07;101103.53;;;24.37;57.42
62617;BME280;62539;51.190;6.808;2022-08-19T05:56:34;101102.16;;;24.30;57.82
62617;BME280;62539;51.190;6.808;2022-08-19T05:59:03;101103.34;;;24.25;57.93
62617;BME280;62539;51.190;6.808;2022-08-19T06:01:33;101103.44;;;24.05;59.18
62617;BME280;62539;51.190;6.808;2022-08-19T06:03:59;101102.34;;;24.10;58.48
62617;BME280;62539;51.190;6.808;2022-08-19T06:06:25;101098.75;;;24.11;59.27
62617;BME280;62539;51.190;6.808;2022-08-19T06:08:50;101102.34;;;24.10;59.26
62617;BME280;62539;51.190;6.808;2022-08-19T06:11:30;101097.22;;;24.06;59.27
62617;BME280;62539;51.190;6.808;2022-08-19T06:14:02;101090.97;;;24.07;59.26
62617;BME280;62539;51.190;6.808;2022-08-19T06:16:33;101102.63;;;24.05;59.32
62617;BME280;62539;51.190;6.808;2022-08-19T06:19:01;101106.38;;;24.01;59.72
62617;BME280;62539;51.190;6.808;2022-08-19T06:21:29;101108.38;;;23.96;59.64
62617;BME280;62539;51.190;6.808;2022-08-19T06:23:56;101109.38;;;23.93;59.57
62617;BME280;62539;51.190;6.808;2022-08-19T06:26:23;101106.09;;;23.88;59.92
62617;BME280;62539;51.190;6.808;2022-08-19T06:28:49;101107.38;;;23.81;59.90
62617;BME280;62539;51.190;6.808;2022-08-19T06:31:24;101096.78;;;23.81;59.77
62617;BME280;62539;51.190;6.808;2022-08-19T06:33:52;101100.28;;;23.81;59.95
62617;BME280;62539;51.190;6.808;2022-08-19T06:36:24;101097.72;;;23.80;59.98
62617;BME280;62539;51.190;6.808;2022-08-19T06:38:57;101099.59;;;23.77;59.84
62617;BME280;62539;51.190;6.808;2022-08-19T06:41:25;101105.06;;;23.74;59.80
62617;BME280;62539;51.190;6.808;2022-08-19T06:43:51;101113.22;;;23.70;60.33
62617;BME280;62539;51.190;6.808;2022-08-19T06:46:18;101116.81;;;23.69;60.01
62617;BME280;62539;51.190;6.808;2022-08-19T06:48:45;101114.41;;;23.64;60.17
62617;BME280;62539;51.190;6.808;2022-08-19T06:51:13;101107.69;;;23.57;60.36
62617;BME280;62539;51.190;6.808;2022-08-19T06:53:41;101105.53;;;23.47;61.11
62617;BME280;62539;51.190;6.808;2022-08-19T06:56:10;101112.22;;;23.37;61.24
62617;BME280;62539;51.190;6.808;2022-08-19T06:58:36;101109.47;;;23.39;61.73
62617;BME280;62539;51.190;6.808;2022-08-19T07:01:03;101119.91;;;23.42;61.45
62617;BME280;62539;51.190;6.808;2022-08-19T07:03:32;101113.47;;;23.47;61.75
62617;BME280;62539;51.190;6.808;2022-08-19T07:06:14;101109.88;;;23.48;61.46
62617;BME280;62539;51.190;6.808;2022-08-19T07:08:44;101109.41;;;23.58;61.23
62617;BME280;62539;51.190;6.808;2022-08-19T07:11:13;101108.38;;;23.60;61.47
62617;BME280;62539;51.190;6.808;2022-08-19T07:13:41;101113.47;;;23.65;61.02
62617;BME280;62539;51.190;6.808;2022-08-19T07:16:15;101119.69;;;23.64;61.49
62617;BME280;62539;51.190;6.808;2022-08-19T07:18:44;101120.53;;;23.64;61.14
62617;BME280;62539;51.190;6.808;2022-08-19T07:21:15;101129.41;;;23.63;61.30
62617;BME280;62539;51.190;6.808;2022-08-19T07:23:43;101132.16;;;23.62;61.42
62617;BME280;62539;51.190;6.808;2022-08-19T07:28:47;101138.44;;;23.59;61.51
62617;BME280;62539;51.190;6.808;2022-08-19T07:31:18;101143.13;;;23.54;61.45
62617;BME280;62539;51.190;6.808;2022-08-19T07:33:48;101143.06;;;23.56;61.34
62617;BME280;62539;51.190;6.808;2022-08-19T07:36:17;101144.63;;;23.60;61.38
62617;BME280;62539;51.190;6.808;2022-08-19T07:38:47;101146.19;;;23.64;61.41
62617;BME280;62539;51.190;6.808;2022-08-19T07:41:18;101152.88;;;23.71;61.15
62617;BME280;62539;51.190;6.808;2022-08-19T07:43:46;101152.63;;;23.76;61.09
62617;BME280;62539;51.190;6.808;2022-08-19T07:46:12;101156.16;;;23.76;61.48
62617;BME280;62539;51.190;6.808;2022-08-19T07:48:40;101161.63;;;23.73;61.26
62617;BME280;62539;51.190;6.808;2022-08-19T07:51:08;101165.88;;;23.76;61.46
62617;BME280;62539;51.190;6.808;2022-08-19T07:53:36;101168.31;;;23.81;61.67
62617;BME280;62539;51.190;6.808;2022-08-19T07:56:04;101166.44;;;23.83;61.49
62617;BME280;62539;51.190;6.808;2022-08-19T07:58:36;101167.97;;;23.87;61.61
62617;BME280;62539;51.190;6.808;2022-08-19T08:01:04;101174.06;;;23.89;61.71
62617;BME280;62539;51.190;6.808;2022-08-19T08:03:32;101173.13;;;23.90;61.98
62617;BME280;62539;51.190;6.808;2022-08-19T08:06:17;101170.25;;;23.95;61.91
62617;BME280;62539;51.190;6.808;2022-08-19T08:09:03;101171.69;;;24.02;61.65
62617;BME280;62539;51.190;6.808;2022-08-19T08:11:37;101170.31;;;24.11;60.74
62617;BME280;62539;51.190;6.808;2022-08-19T08:14:04;101175.16;;;24.20;60.92
62617;BME280;62539;51.190;6.808;2022-08-19T08:16:34;101169.53;;;24.26;60.52
62617;BME280;62539;51.190;6.808;2022-08-19T08:19:04;101177.09;;;24.34;60.23
62617;BME280;62539;51.190;6.808;2022-08-19T08:21:31;101174.03;;;24.42;59.76
62617;BME280;62539;51.190;6.808;2022-08-19T08:23:58;101174.47;;;24.50;59.74
62617;BME280;62539;51.190;6.808;2022-08-19T08:26:24;101174.13;;;24.56;59.25
62617;BME280;62539;51.190;6.808;2022-08-19T08:28:51;101183.47;;;24.63;59.13
62617;BME280;62539;51.190;6.808;2022-08-19T08:31:17;101189.38;;;24.69;59.04
62617;BME280;62539;51.190;6.808;2022-08-19T08:33:45;101182.13;;;24.72;59.37
62617;BME280;62539;51.190;6.808;2022-08-19T08:36:11;101184.66;;;24.75;58.74
62617;BME280;62539;51.190;6.808;2022-08-19T08:38:39;101182.69;;;24.79;58.94
62617;BME280;62539;51.190;6.808;2022-08-19T08:41:16;101191.41;;;24.81;58.75
62617;BME280;62539;51.190;6.808;2022-08-19T08:43:49;101190.22;;;24.87;58.90
62617;BME280;62539;51.190;6.808;2022-08-19T08:46:27;101186.53;;;24.89;58.65
62617;BME280;62539;51.190;6.808;2022-08-19T08:49:33;101186.53;;;24.89;58.34
62617;BME280;62539;51.190;6.808;2022-08-19T08:52:10;101185.25;;;24.97;57.87
62617;BME280;62539;51.190;6.808;2022-08-19T08:54:43;101171.81;;;25.00;58.11
62617;BME280;62539;51.190;6.808;2022-08-19T08:57:13;101183.31;;;25.00;57.70
62617;BME280;62539;51.190;6.808;2022-08-19T08:59:47;101179.59;;;25.03;57.80
62617;BME280;62539;51.190;6.808;2022-08-19T09:02:17;101181.31;;;25.04;57.72
62617;BME280;62539;51.190;6.808;2022-08-19T09:04:44;101178.50;;;25.07;57.56
62617;BME280;62539;51.190;6.808;2022-08-19T09:10:23;101175.00;;;25.06;56.89
62617;BME280;62539;51.190;6.808;2022-08-19T09:13:07;101180.91;;;25.12;56.72
62617;BME280;62539;51.190;6.808;2022-08-19T09:15:53;101175.50;;;25.13;56.78
62617;BME280;62539;51.190;6.808;2022-08-19T09:18:24;101176.38;;;25.14;56.63
62617;BME280;62539;51.190;6.808;2022-08-19T09:20:49;101178.06;;;25.15;56.60
62617;BME280;62539;51.190;6.808;2022-08-19T09:23:15;101185.94;;;25.16;56.72
62617;BME280;62539;51.190;6.808;2022-08-19T09:25:41;101178.75;;;25.18;56.58
62617;BME280;62539;51.190;6.808;2022-08-19T09:28:06;101183.13;;;25.19;56.36
62617;BME280;62539;51.190;6.808;2022-08-19T09:30:36;101173.25;;;25.21;56.17
62617;BME280;62539;51.190;6.808;2022-08-19T09:33:06;101181.06;;;25.24;55.72
62617;BME280;62539;51.190;6.808;2022-08-19T09:35:32;101175.66;;;25.26;55.88
62617;BME280;62539;51.190;6.808;2022-08-19T09:37:59;101180.81;;;25.29;55.51
62617;BME280;62539;51.190;6.808;2022-08-19T09:40:28;101183.34;;;25.31;55.28
62617;BME280;62539;51.190;6.808;2022-08-19T09:42:54;101179.75;;;25.32;55.27
62617;BME280;62539;51.190;6.808;2022-08-19T09:45:22;101174.38;;;25.33;54.87
62617;BME280;62539;51.190;6.808;2022-08-19T09:47:49;101171.63;;;25.35;54.94
62617;BME280;62539;51.190;6.808;2022-08-19T09:50:16;101175.16;;;25.35;54.40
62617;BME280;62539;51.190;6.808;2022-08-19T09:52:44;101180.28;;;25.38;54.51
62617;BME280;62539;51.190;6.808;2022-08-19T09:55:10;101176.69;;;25.39;54.85
62617;BME280;62539;51.190;6.808;2022-08-19T09:57:38;101170.50;;;25.39;54.81
62617;BME280;62539;51.190;6.808;2022-08-19T10:00:05;101166.72;;;25.43;54.40
62617;BME280;62539;51.190;6.808;2022-08-19T10:02:34;101176.41;;;25.44;54.21
62617;BME280;62539;51.190;6.808;2022-08-19T10:05:00;101173.59;;;25.47;54.00
62617;BME280;62539;51.190;6.808;2022-08-19T10:07:44;101175.31;;;25.48;54.34
62617;BME280;62539;51.190;6.808;2022-08-19T10:10:10;101175.13;;;25.51;54.19
62617;BME280;62539;51.190;6.808;2022-08-19T10:12:35;101173.25;;;25.53;53.84
62617;BME280;62539;51.190;6.808;2022-08-19T10:15:02;101166.91;;;25.56;53.79
62617;BME280;62539;51.190;6.808;2022-08-19T10:17:30;101168.63;;;25.57;53.90
62617;BME280;62539;51.190;6.808;2022-08-19T10:19:56;101159.72;;;25.58;53.80
62617;BME280;62539;51.190;6.808;2022-08-19T10:22:21;101162.25;;;25.60;53.30
62617;BME280;62539;51.190;6.808;2022-08-19T10:24:48;101163.03;;;25.62;53.69
62617;BME280;62539;51.190;6.808;2022-08-19T10:27:14;101157.63;;;25.63;53.42
62617;BME280;62539;51.190;6.808;2022-08-19T10:29:40;101147.78;;;25.65;53.52
62617;BME280;62539;51.190;6.808;2022-08-19T10:32:08;101144.06;;;25.68;53.39
62617;BME280;62539;51.190;6.808;2022-08-19T10:34:38;101148.38;;;25.71;53.22
62617;BME280;62539;51.190;6.808;2022-08-19T10:37:04;101150.91;;;25.72;53.17
62617;BME280;62539;51.190;6.808;2022-08-19T10:39:35;101152.63;;;25.73;53.23
62617;BME280;62539;51.190;6.808;2022-08-19T10:42:07;101150.91;;;25.72;52.89
62617;BME280;62539;51.190;6.808;2022-08-19T10:44:35;101148.06;;;25.75;52.70
62617;BME280;62539;51.190;6.808;2022-08-19T10:47:02;101147.91;;;25.78;52.82
62617;BME280;62539;51.190;6.808;2022-08-19T10:49:28;101154.91;;;25.79;52.44
62617;BME280;62539;51.190;6.808;2022-08-19T10:51:55;101149.53;;;25.81;52.60
62617;BME280;62539;51.190;6.808;2022-08-19T10:54:39;101150.38;;;25.81;52.53
62617;BME280;62539;51.190;6.808;2022-08-19T10:57:24;101152.94;;;25.83;52.32
62617;BME280;62539;51.190;6.808;2022-08-19T10:59:57;101154.66;;;25.84;52.48
62617;BME280;62539;51.190;6.808;2022-08-19T11:02:22;101154.56;;;25.86;52.44
62617;BME280;62539;51.190;6.808;2022-08-19T11:04:48;101155.50;;;25.85;52.45
62617;BME280;62539;51.190;6.808;2022-08-19T11:07:15;101146.56;;;25.86;52.21
62617;BME280;62539;51.190;6.808;2022-08-19T11:09:41;101147.34;;;25.88;52.26
62617;BME280;62539;51.190;6.808;2022-08-19T11:12:08;101150.00;;;25.88;51.99
62617;BME280;62539;51.190;6.808;2022-08-19T11:14:34;101147.34;;;25.88;51.88
62617;BME280;62539;51.190;6.808;2022-08-19T11:17:02;101147.16;;;25.91;52.12
62617;BME280;62539;51.190;6.808;2022-08-19T11:19:29;101152.28;;;25.94;51.99
62617;BME280;62539;51.190;6.808;2022-08-19T11:21:55;101140.72;;;25.95;52.27
62617;BME280;62539;51.190;6.808;2022-08-19T11:24:24;101149.44;;;25.97;52.02
62617;BME280;62539;51.190;6.808;2022-08-19T11:26:53;101137.88;;;25.98;52.15
62617;BME280;62539;51.190;6.808;2022-08-19T11:29:24;101138.63;;;26.00;52.26
62617;BME280;62539;51.190;6.808;2022-08-19T11:31:51;101145.66;;;26.01;52.25
62617;BME280;62539;51.190;6.808;2022-08-19T11:34:26;101143.94;;;26.00;52.27
62617;BME280;62539;51.190;6.808;2022-08-19T11:36:54;101133.13;;;26.03;51.94
62617;BME280;62539;51.190;6.808;2022-08-19T11:39:24;101132.94;;;26.06;51.65
62617;BME280;62539;51.190;6.808;2022-08-19T11:41:51;101128.50;;;26.07;51.76
62617;BME280;62539;51.190;6.808;2022-08-19T11:44:17;101135.41;;;26.09;51.89
62617;BME280;62539;51.190;6.808;2022-08-19T11:46:43;101129.16;;;26.10;51.54
62617;BME280;62539;51.190;6.808;2022-08-19T11:49:11;101120.97;;;26.13;51.69
62617;BME280;62539;51.190;6.808;2022-08-19T11:51:38;101118.31;;;26.13;51.58
62617;BME280;62539;51.190;6.808;2022-08-19T11:54:05;101130.69;;;26.15;51.16
62617;BME280;62539;51.190;6.808;2022-08-19T11:56:31;101125.38;;;26.15;50.91
62617;BME280;62539;51.190;6.808;2022-08-19T11:58:57;101123.47;;;26.17;50.84
62617;BME280;62539;51.190;6.808;2022-08-19T12:01:24;101127.97;;;26.16;51.28
62617;BME280;62539;51.190;6.808;2022-08-19T12:03:52;101129.66;;;26.17;50.95
62617;BME280;62539;51.190;6.808;2022-08-19T12:06:22;101130.50;;;26.18;50.41
62617;BME280;62539;51.190;6.808;2022-08-19T12:08:55;101125.19;;;26.18;49.97
62617;BME280;62539;51.190;6.808;2022-08-19T12:11:21;101127.78;;;26.19;50.10
62617;BME280;62539;51.190;6.808;2022-08-19T12:13:47;101123.28;;;26.20;49.84
62617;BME280;62539;51.190;6.808;2022-08-19T12:16:23;101123.28;;;26.20;49.96
62617;BME280;62539;51.190;6.808;2022-08-19T12:18:52;101110.00;;;26.20;49.95
62617;BME280;62539;51.190;6.808;2022-08-19T12:21:21;101108.09;;;26.22;49.71
62617;BME280;62539;51.190;6.808;2022-08-19T12:23:50;101108.84;;;26.24;49.93
62617;BME280;62539;51.190;6.808;2022-08-19T12:26:16;101111.53;;;26.24;49.82
62617;BME280;62539;51.190;6.808;2022-08-19T12:28:42;101114.09;;;26.25;50.40
62617;BME280;62539;51.190;6.808;2022-08-19T12:31:08;101108.84;;;26.24;50.24
62617;BME280;62539;51.190;6.808;2022-08-19T12:33:37;101110.56;;;26.25;50.44
62617;BME280;62539;51.190;6.808;2022-08-19T12:36:04;101108.66;;;26.27;49.83
62617;BME280;62539;51.190;6.808;2022-08-19T12:38:32;101110.38;;;26.28;50.24
62617;BME280;62539;51.190;6.808;2022-08-19T12:40:59;101100.59;;;26.29;50.00
62617;BME280;62539;51.190;6.808;2022-08-19T12:43:26;101097.75;;;26.32;50.16
62617;BME280;62539;51.190;6.808;2022-08-19T12:45:52;101105.63;;;26.33;50.07
62617;BME280;62539;51.190;6.808;2022-08-19T12:48:17;101102.00;;;26.34;50.45
62617;BME280;62539;51.190;6.808;2022-08-19T12:50:44;101093.09;;;26.35;50.55
62617;BME280;62539;51.190;6.808;2022-08-19T12:53:11;101101.06;;;26.35;50.64
62617;BME280;62539;51.190;6.808;2022-08-19T12:55:36;101104.59;;;26.36;50.39
62617;BME280;62539;51.190;6.808;2022-08-19T12:58:02;101095.75;;;26.35;50.12
62617;BME280;62539;51.190;6.808;2022-08-19T13:00:28;101105.34;;;26.38;50.20
62617;BME280;62539;51.190;6.808;2022-08-19T13:02:55;101091.94;;;26.39;50.18
62617;BME280;62539;51.190;6.808;2022-08-19T13:05:29;101100.69;;;26.41;50.06